sensor_id;sensor_type;location;lat;lon;timestamp;P1;durP1;ratioP1;P2;durP2;ratioP2
34204;SDS011;20471;49.680;20.074;2022-08-19T00:01:49;19.62;;;15.08;;
34204;SDS011;20471;49.680;20.074;2022-08-19T00:04:19;17.37;;;13.93;;
34204;SDS011;20471;49.680;20.074;2022-08-19T00:06:49;15.45;;;13.85;;
34204;SDS011;20471;49.680;20.074;2022-08-19T00:09:19;17.05;;;12.90;;
34204;SDS011;20471;49.680;20.074;2022-08-19T00:11:48;15.70;;;13.80;;
34204;SDS011;20471;49.680;20.074;2022-08-19T00:14:16;17.35;;;14.13;;
34204;SDS011;20471;49.680;20.074;2022-08-19T00:16:44;17.02;;;13.95;;
34204;SDS011;20471;49.680;20.074;2022-08-19T00:19:13;14.75;;;13.13;;
34204;SDS011;20471;49.680;20.074;2022-08-19T00:21:41;14.87;;;13.35;;
34204;SDS011;20471;49.680;20.074;2022-08-19T00:24:10;20.50;;;14.43;;
34204;SDS011;20471;49.680;20.074;2022-08-19T00:26:39;15.98;;;14.30;;
34204;SDS011;20471;49.680;20.074;2022-08-19T00:29:08;16.30;;;14.53;;
34204;SDS011;20471;49.680;20.074;2022-08-19T00:31:37;20.23;;;14.70;;
34204;SDS011;20471;49.680;20.074;2022-08-19T00:34:04;20.72;;;14.87;;
34204;SDS011;20471;49.680;20.074;2022-08-19T00:36:31;16.35;;;14.50;;
34204;SDS011;20471;49.680;20.074;2022-08-19T00:38:58;20.80;;;14.38;;
34204;SDS011;20471;49.680;20.074;2022-08-19T00:41:26;17.00;;;14.03;;
34204;SDS011;20471;49.680;20.074;2022-08-19T00:44:06;16.57;;;14.65;;
34204;SDS011;20471;49.680;20.074;2022-08-19T00:46:39;17.45;;;15.00;;
34204;SDS011;20471;49.680;20.074;2022-08-19T00:49:13;16.20;;;14.47;;
34204;SDS011;20471;49.680;20.074;2022-08-19T00:54:36;16.27;;;13.03;;
34204;SDS011;20471;49.680;20.074;2022-08-19T00:57:05;15.15;;;13.55;;
34204;SDS011;20471;49.680;20.074;2022-08-19T00:59:38;16.17;;;14.43;;
34204;SDS011;20471;49.680;20.074;2022-08-19T01:02:07;19.82;;;14.87;;
34204;SDS011;20471;49.680;20.074;2022-08-19T01:04:34;18.65;;;14.50;;
34204;SDS011;20471;49.680;20.074;2022-08-19T01:07:00;21.15;;;15.32;;
34204;SDS011;20471;49.680;20.074;2022-08-19T01:09:28;21.68;;;16.67;;
34204;SDS011;20471;49.680;20.074;2022-08-19T01:11:55;23.20;;;16.80;;
34204;SDS011;20471;49.680;20.074;2022-08-19T01:14:22;20.88;;;16.00;;
34204;SDS011;20471;49.680;20.074;2022-08-19T01:16:50;19.52;;;16.52;;
34204;SDS011;20471;49.680;20.074;2022-08-19T01:19:25;23.77;;;15.38;;
34204;SDS011;20471;49.680;20.074;2022-08-19T01:22:03;24.35;;;16.35;;
34204;SDS011;20471;49.680;20.074;2022-08-19T01:24:39;22.42;;;15.78;;
34204;SDS011;20471;49.680;20.074;2022-08-19T01:27:06;20.50;;;15.45;;
34204;SDS011;20471;49.680;20.074;2022-08-19T01:29:37;19.12;;;15.28;;
34204;SDS011;20471;49.680;20.074;2022-08-19T01:32:06;20.80;;;14.90;;
34204;SDS011;20471;49.680;20.074;2022-08-19T01:34:37;20.17;;;15.40;;
34204;SDS011;20471;49.680;20.074;2022-08-19T01:37:10;18.52;;;15.08;;
34204;SDS011;20471;49.680;20.074;2022-08-19T01:39:38;18.82;;;15.03;;
34204;SDS011;20471;49.680;20.074;2022-08-19T01:42:07;21.30;;;15.58;;
34204;SDS011;20471;49.680;20.074;2022-08-19T01:44:38;17.45;;;14.65;;
34204;SDS011;20471;49.680;20.074;2022-08-19T01:47:07;17.17;;;14.20;;
34204;SDS011;20471;49.680;20.074;2022-08-19T01:49:35;16.30;;;13.53;;
34204;SDS011;20471;49.680;20.074;2022-08-19T01:52:03;16.95;;;13.93;;
34204;SDS011;20471;49.680;20.074;2022-08-19T01:54:32;16.75;;;14.13;;
34204;SDS011;20471;49.680;20.074;2022-08-19T01:57:07;16.73;;;14.55;;
34204;SDS011;20471;49.680;20.074;2022-08-19T01:59:36;16.30;;;14.38;;
34204;SDS011;20471;49.680;20.074;2022-08-19T02:02:05;16.80;;;15.00;;
34204;SDS011;20471;49.680;20.074;2022-08-19T02:04:34;16.32;;;14.38;;
34204;SDS011;20471;49.680;20.074;2022-08-19T02:07:03;16.27;;;14.58;;
34204;SDS011;20471;49.680;20.074;2022-08-19T02:09:30;16.12;;;14.45;;
34204;SDS011;20471;49.680;20.074;2022-08-19T02:11:58;18.17;;;14.33;;
34204;SDS011;20471;49.680;20.074;2022-08-19T02:14:24;16.60;;;13.93;;
34204;SDS011;20471;49.680;20.074;2022-08-19T02:16:52;16.00;;;13.75;;
34204;SDS011;20471;49.680;20.074;2022-08-19T02:19:18;17.17;;;14.28;;
34204;SDS011;20471;49.680;20.074;2022-08-19T02:21:45;17.45;;;14.10;;
34204;SDS011;20471;49.680;20.074;2022-08-19T02:24:11;15.60;;;13.90;;
34204;SDS011;20471;49.680;20.074;2022-08-19T02:26:38;16.77;;;14.18;;
34204;SDS011;20471;49.680;20.074;2022-08-19T02:29:05;16.52;;;14.05;;
34204;SDS011;20471;49.680;20.074;2022-08-19T02:31:32;19.10;;;14.47;;
34204;SDS011;20471;49.680;20.074;2022-08-19T02:33:58;17.70;;;14.95;;
34204;SDS011;20471;49.680;20.074;2022-08-19T02:36:25;18.35;;;14.60;;
34204;SDS011;20471;49.680;20.074;2022-08-19T02:38:53;17.40;;;15.55;;
34204;SDS011;20471;49.680;20.074;2022-08-19T02:41:22;18.17;;;14.43;;
34204;SDS011;20471;49.680;20.074;2022-08-19T02:43:53;18.20;;;14.23;;
34204;SDS011;20471;49.680;20.074;2022-08-19T02:46:23;20.32;;;14.40;;
34204;SDS011;20471;49.680;20.074;2022-08-19T02:48:53;17.40;;;15.60;;
34204;SDS011;20471;49.680;20.074;2022-08-19T02:51:31;17.25;;;15.08;;
34204;SDS011;20471;49.680;20.074;2022-08-19T02:54:01;19.02;;;14.58;;
34204;SDS011;20471;49.680;20.074;2022-08-19T02:56:29;18.12;;;15.32;;
34204;SDS011;20471;49.680;20.074;2022-08-19T02:58:57;17.48;;;14.80;;
34204;SDS011;20471;49.680;20.074;2022-08-19T03:01:25;18.77;;;14.25;;
34204;SDS011;20471;49.680;20.074;2022-08-19T03:03:55;25.70;;;15.20;;
34204;SDS011;20471;49.680;20.074;2022-08-19T03:06:24;18.25;;;14.73;;
34204;SDS011;20471;49.680;20.074;2022-08-19T03:08:52;17.87;;;14.00;;
34204;SDS011;20471;49.680;20.074;2022-08-19T03:11:21;19.00;;;14.45;;
34204;SDS011;20471;49.680;20.074;2022-08-19T03:13:51;23.67;;;15.10;;
34204;SDS011;20471;49.680;20.074;2022-08-19T03:16:19;18.62;;;14.13;;
34204;SDS011;20471;49.680;20.074;2022-08-19T03:18:48;17.00;;;14.30;;
34204;SDS011;20471;49.680;20.074;2022-08-19T03:21:16;17.90;;;14.63;;
34204;SDS011;20471;49.680;20.074;2022-08-19T03:23:47;19.05;;;15.28;;
34204;SDS011;20471;49.680;20.074;2022-08-19T03:26:13;20.92;;;15.65;;
34204;SDS011;20471;49.680;20.074;2022-08-19T03:28:41;16.77;;;14.93;;
34204;SDS011;20471;49.680;20.074;2022-08-19T03:31:12;18.65;;;14.95;;
34204;SDS011;20471;49.680;20.074;2022-08-19T03:33:39;16.80;;;14.90;;
34204;SDS011;20471;49.680;20.074;2022-08-19T03:36:08;20.32;;;14.95;;
34204;SDS011;20471;49.680;20.074;2022-08-19T03:38:46;20.45;;;15.75;;
34204;SDS011;20471;49.680;20.074;2022-08-19T03:41:17;18.55;;;16.23;;
34204;SDS011;20471;49.680;20.074;2022-08-19T03:43:47;20.13;;;16.57;;
34204;SDS011;20471;49.680;20.074;2022-08-19T03:46:17;20.68;;;16.77;;
34204;SDS011;20471;49.680;20.074;2022-08-19T03:48:47;20.45;;;16.02;;
34204;SDS011;20471;49.680;20.074;2022-08-19T03:51:19;19.05;;;15.85;;
34204;SDS011;20471;49.680;20.074;2022-08-19T03:53:50;19.30;;;16.65;;
34204;SDS011;20471;49.680;20.074;2022-08-19T03:56:19;17.92;;;15.93;;
34204;SDS011;20471;49.680;20.074;2022-08-19T03:58:46;20.08;;;16.35;;
34204;SDS011;20471;49.680;20.074;2022-08-19T04:01:15;22.37;;;18.90;;
34204;SDS011;20471;49.680;20.074;2022-08-19T04:03:44;19.65;;;17.52;;
34204;SDS011;20471;49.680;20.074;2022-08-19T04:06:15;19.55;;;17.40;;
34204;SDS011;20471;49.680;20.074;2022-08-19T04:08:47;20.62;;;15.35;;
34204;SDS011;20471;49.680;20.074;2022-08-19T04:13:51;19.45;;;15.72;;
34204;SDS011;20471;49.680;20.074;2022-08-19T04:16:20;18.25;;;16.12;;
34204;SDS011;20471;49.680;20.074;2022-08-19T04:18:48;18.23;;;16.07;;
34204;SDS011;20471;49.680;20.074;2022-08-19T04:21:18;18.48;;;16.23;;
34204;SDS011;20471;49.680;20.074;2022-08-19T04:23:49;22.13;;;17.37;;
34204;SDS011;20471;49.680;20.074;2022-08-19T04:28:48;20.77;;;16.82;;
34204;SDS011;20471;49.680;20.074;2022-08-19T04:31:16;21.35;;;17.35;;
34204;SDS011;20471;49.680;20.074;2022-08-19T04:33:54;20.72;;;16.57;;
34204;SDS011;20471;49.680;20.074;2022-08-19T04:38:55;20.15;;;16.65;;
34204;SDS011;20471;49.680;20.074;2022-08-19T04:41:26;22.67;;;17.73;;
34204;SDS011;20471;49.680;20.074;2022-08-19T04:44:11;19.12;;;15.70;;
34204;SDS011;20471;49.680;20.074;2022-08-19T04:46:39;20.90;;;15.38;;
34204;SDS011;20471;49.680;20.074;2022-08-19T04:49:07;19.25;;;15.20;;
34204;SDS011;20471;49.680;20.074;2022-08-19T04:51:34;16.48;;;14.83;;
34204;SDS011;20471;49.680;20.074;2022-08-19T04:54:03;16.30;;;14.65;;
34204;SDS011;20471;49.680;20.074;2022-08-19T04:56:29;17.32;;;15.20;;
34204;SDS011;20471;49.680;20.074;2022-08-19T04:58:56;20.27;;;15.75;;
34204;SDS011;20471;49.680;20.074;2022-08-19T05:04:01;19.55;;;16.27;;
34204;SDS011;20471;49.680;20.074;2022-08-19T05:06:30;17.05;;;15.05;;
34204;SDS011;20471;49.680;20.074;2022-08-19T05:11:32;18.73;;;15.95;;
34204;SDS011;20471;49.680;20.074;2022-08-19T05:14:04;20.32;;;16.05;;
34204;SDS011;20471;49.680;20.074;2022-08-19T05:16:33;22.35;;;16.52;;
34204;SDS011;20471;49.680;20.074;2022-08-19T05:19:00;18.65;;;16.65;;
34204;SDS011;20471;49.680;20.074;2022-08-19T05:21:45;19.40;;;16.52;;
34204;SDS011;20471;49.680;20.074;2022-08-19T05:24:30;21.55;;;17.05;;
34204;SDS011;20471;49.680;20.074;2022-08-19T05:26:59;22.45;;;17.20;;
34204;SDS011;20471;49.680;20.074;2022-08-19T05:29:29;23.77;;;17.40;;
34204;SDS011;20471;49.680;20.074;2022-08-19T05:31:56;19.98;;;17.87;;
34204;SDS011;20471;49.680;20.074;2022-08-19T05:34:24;25.08;;;17.55;;
34204;SDS011;20471;49.680;20.074;2022-08-19T05:39:24;20.92;;;17.27;;
34204;SDS011;20471;49.680;20.074;2022-08-19T05:41:57;19.25;;;17.12;;
34204;SDS011;20471;49.680;20.074;2022-08-19T05:44:26;22.33;;;17.97;;
34204;SDS011;20471;49.680;20.074;2022-08-19T05:46:57;22.20;;;17.02;;
34204;SDS011;20471;49.680;20.074;2022-08-19T05:49:25;22.00;;;17.55;;
34204;SDS011;20471;49.680;20.074;2022-08-19T05:51:53;17.82;;;15.98;;
34204;SDS011;20471;49.680;20.074;2022-08-19T05:54:21;19.95;;;16.85;;
34204;SDS011;20471;49.680;20.074;2022-08-19T05:56:50;22.00;;;17.37;;
34204;SDS011;20471;49.680;20.074;2022-08-19T05:59:17;25.90;;;18.60;;
34204;SDS011;20471;49.680;20.074;2022-08-19T06:01:47;21.40;;;17.95;;
34204;SDS011;20471;49.680;20.074;2022-08-19T06:04:17;19.60;;;16.70;;
34204;SDS011;20471;49.680;20.074;2022-08-19T06:06:45;19.17;;;17.17;;
34204;SDS011;20471;49.680;20.074;2022-08-19T06:09:14;20.68;;;16.73;;
34204;SDS011;20471;49.680;20.074;2022-08-19T06:11:42;20.97;;;17.12;;
34204;SDS011;20471;49.680;20.074;2022-08-19T06:14:16;24.00;;;17.73;;
34204;SDS011;20471;49.680;20.074;2022-08-19T06:16:46;24.27;;;16.45;;
34204;SDS011;20471;49.680;20.074;2022-08-19T06:19:14;20.37;;;16.48;;
34204;SDS011;20471;49.680;20.074;2022-08-19T06:21:44;21.57;;;16.30;;
34204;SDS011;20471;49.680;20.074;2022-08-19T06:24:14;20.30;;;16.35;;
34204;SDS011;20471;49.680;20.074;2022-08-19T06:26:45;25.10;;;17.20;;
34204;SDS011;20471;49.680;20.074;2022-08-19T06:29:14;17.75;;;15.85;;
34204;SDS011;20471;49.680;20.074;2022-08-19T06:31:44;17.95;;;15.20;;
34204;SDS011;20471;49.680;20.074;2022-08-19T06:34:15;17.73;;;15.05;;
34204;SDS011;20471;49.680;20.074;2022-08-19T06:36:44;20.95;;;15.30;;
34204;SDS011;20471;49.680;20.074;2022-08-19T06:41:46;19.53;;;15.20;;
34204;SDS011;20471;49.680;20.074;2022-08-19T06:44:17;18.10;;;15.25;;
34204;SDS011;20471;49.680;20.074;2022-08-19T06:46:45;22.93;;;14.65;;
34204;SDS011;20471;49.680;20.074;2022-08-19T06:49:13;20.43;;;15.43;;
34204;SDS011;20471;49.680;20.074;2022-08-19T06:51:40;20.02;;;15.55;;
34204;SDS011;20471;49.680;20.074;2022-08-19T06:54:09;16.10;;;14.50;;
34204;SDS011;20471;49.680;20.074;2022-08-19T06:56:37;18.67;;;13.72;;
34204;SDS011;20471;49.680;20.074;2022-08-19T06:59:05;16.23;;;13.55;;
34204;SDS011;20471;49.680;20.074;2022-08-19T07:01:40;17.92;;;14.87;;
34204;SDS011;20471;49.680;20.074;2022-08-19T07:04:11;17.62;;;14.05;;
34204;SDS011;20471;49.680;20.074;2022-08-19T07:06:39;17.95;;;15.00;;
34204;SDS011;20471;49.680;20.074;2022-08-19T07:09:06;17.60;;;15.23;;
34204;SDS011;20471;49.680;20.074;2022-08-19T07:11:34;18.00;;;15.55;;
34204;SDS011;20471;49.680;20.074;2022-08-19T07:14:01;18.52;;;15.40;;
34204;SDS011;20471;49.680;20.074;2022-08-19T07:16:31;19.00;;;15.83;;
34204;SDS011;20471;49.680;20.074;2022-08-19T07:18:57;24.75;;;16.32;;
34204;SDS011;20471;49.680;20.074;2022-08-19T07:21:25;21.48;;;17.57;;
34204;SDS011;20471;49.680;20.074;2022-08-19T07:23:55;20.68;;;18.40;;
34204;SDS011;20471;49.680;20.074;2022-08-19T07:26:28;18.42;;;15.68;;
34204;SDS011;20471;49.680;20.074;2022-08-19T07:28:58;18.02;;;16.00;;
34204;SDS011;20471;49.680;20.074;2022-08-19T07:31:27;17.85;;;16.05;;
34204;SDS011;20471;49.680;20.074;2022-08-19T07:33:55;16.97;;;14.98;;
34204;SDS011;20471;49.680;20.074;2022-08-19T07:36:26;17.23;;;15.25;;
34204;SDS011;20471;49.680;20.074;2022-08-19T07:38:58;17.67;;;15.05;;
34204;SDS011;20471;49.680;20.074;2022-08-19T07:41:28;16.52;;;14.53;;
34204;SDS011;20471;49.680;20.074;2022-08-19T07:43:57;17.40;;;14.43;;
34204;SDS011;20471;49.680;20.074;2022-08-19T07:46:27;17.57;;;14.98;;
34204;SDS011;20471;49.680;20.074;2022-08-19T07:48:56;18.02;;;13.78;;
34204;SDS011;20471;49.680;20.074;2022-08-19T07:51:23;16.32;;;13.62;;
34204;SDS011;20471;49.680;20.074;2022-08-19T07:53:50;14.00;;;12.50;;
34204;SDS011;20471;49.680;20.074;2022-08-19T07:56:18;17.77;;;13.25;;
34204;SDS011;20471;49.680;20.074;2022-08-19T07:58:47;14.90;;;13.40;;
34204;SDS011;20471;49.680;20.074;2022-08-19T08:01:17;15.60;;;12.63;;
34204;SDS011;20471;49.680;20.074;2022-08-19T08:03:48;18.23;;;12.00;;
34204;SDS011;20471;49.680;20.074;2022-08-19T08:06:34;13.98;;;12.47;;
34204;SDS011;20471;49.680;20.074;2022-08-19T08:09:22;18.00;;;12.95;;
34204;SDS011;20471;49.680;20.074;2022-08-19T08:14:38;14.53;;;12.50;;
34204;SDS011;20471;49.680;20.074;2022-08-19T08:17:09;15.40;;;11.70;;
34204;SDS011;20471;49.680;20.074;2022-08-19T08:19:36;14.85;;;12.00;;
34204;SDS011;20471;49.680;20.074;2022-08-19T08:22:05;13.03;;;11.50;;
34204;SDS011;20471;49.680;20.074;2022-08-19T08:24:33;13.53;;;12.13;;
34204;SDS011;20471;49.680;20.074;2022-08-19T08:27:01;15.65;;;11.97;;
34204;SDS011;20471;49.680;20.074;2022-08-19T08:29:29;15.08;;;11.57;;
34204;SDS011;20471;49.680;20.074;2022-08-19T08:31:57;13.88;;;11.33;;
34204;SDS011;20471;49.680;20.074;2022-08-19T08:34:24;12.95;;;11.43;;
34204;SDS011;20471;49.680;20.074;2022-08-19T08:36:51;13.65;;;10.88;;
34204;SDS011;20471;49.680;20.074;2022-08-19T08:39:19;13.98;;;10.28;;
34204;SDS011;20471;49.680;20.074;2022-08-19T08:47:30;10.98;;;9.88;;
34204;SDS011;20471;49.680;20.074;2022-08-19T08:52:37;11.08;;;9.98;;
34204;SDS011;20471;49.680;20.074;2022-08-19T08:55:16;11.38;;;9.23;;
34204;SDS011;20471;49.680;20.074;2022-08-19T09:00:25;12.85;;;10.23;;
34204;SDS011;20471;49.680;20.074;2022-08-19T09:03:02;12.10;;;9.50;;
34204;SDS011;20471;49.680;20.074;2022-08-19T09:11:10;13.32;;;9.93;;
34204;SDS011;20471;49.680;20.074;2022-08-19T09:14:00;12.65;;;10.00;;
34204;SDS011;20471;49.680;20.074;2022-08-19T09:16:30;10.63;;;9.58;;
34204;SDS011;20471;49.680;20.074;2022-08-19T09:18:58;14.53;;;10.30;;
34204;SDS011;20471;49.680;20.074;2022-08-19T09:21:28;15.53;;;10.60;;
34204;SDS011;20471;49.680;20.074;2022-08-19T09:23:54;11.95;;;10.68;;
34204;SDS011;20471;49.680;20.074;2022-08-19T09:26:23;13.90;;;10.18;;
34204;SDS011;20471;49.680;20.074;2022-08-19T09:28:52;12.98;;;10.80;;
34204;SDS011;20471;49.680;20.074;2022-08-19T09:31:21;10.98;;;9.40;;
34204;SDS011;20471;49.680;20.074;2022-08-19T09:33:51;12.50;;;11.08;;
34204;SDS011;20471;49.680;20.074;2022-08-19T09:36:19;13.78;;;11.85;;
34204;SDS011;20471;49.680;20.074;2022-08-19T09:38:48;16.60;;;11.48;;
34204;SDS011;20471;49.680;20.074;2022-08-19T09:41:16;13.80;;;11.60;;
34204;SDS011;20471;49.680;20.074;2022-08-19T09:43:47;12.85;;;10.32;;
34204;SDS011;20471;49.680;20.074;2022-08-19T09:46:18;12.35;;;10.43;;
34204;SDS011;20471;49.680;20.074;2022-08-19T09:48:49;11.85;;;9.93;;
34204;SDS011;20471;49.680;20.074;2022-08-19T09:51:21;12.30;;;9.98;;
34204;SDS011;20471;49.680;20.074;2022-08-19T09:53:51;12.85;;;10.03;;
34204;SDS011;20471;49.680;20.074;2022-08-19T09:56:22;11.50;;;9.40;;
34204;SDS011;20471;49.680;20.074;2022-08-19T09:58:49;10.13;;;9.10;;
34204;SDS011;20471;49.680;20.074;2022-08-19T10:01:17;12.47;;;9.63;;
34204;SDS011;20471;49.680;20.074;2022-08-19T10:03:51;13.83;;;9.80;;
34204;SDS011;20471;49.680;20.074;2022-08-19T10:06:22;12.95;;;9.95;;
34204;SDS011;20471;49.680;20.074;2022-08-19T10:08:54;18.15;;;11.18;;
34204;SDS011;20471;49.680;20.074;2022-08-19T10:11:20;18.32;;;11.28;;
34204;SDS011;20471;49.680;20.074;2022-08-19T10:13:47;18.35;;;10.95;;
34204;SDS011;20471;49.680;20.074;2022-08-19T10:16:15;16.37;;;10.80;;
34204;SDS011;20471;49.680;20.074;2022-08-19T10:18:45;16.40;;;11.33;;
34204;SDS011;20471;49.680;20.074;2022-08-19T10:21:14;17.67;;;11.60;;
34204;SDS011;20471;49.680;20.074;2022-08-19T10:23:50;14.90;;;10.20;;
34204;SDS011;20471;49.680;20.074;2022-08-19T10:26:21;13.90;;;9.23;;
34204;SDS011;20471;49.680;20.074;2022-08-19T10:28:54;14.30;;;10.08;;
34204;SDS011;20471;49.680;20.074;2022-08-19T10:33:54;10.58;;;9.28;;
34204;SDS011;20471;49.680;20.074;2022-08-19T10:39:03;17.00;;;9.35;;
34204;SDS011;20471;49.680;20.074;2022-08-19T10:41:33;9.35;;;8.05;;
34204;SDS011;20471;49.680;20.074;2022-08-19T10:46:37;12.23;;;9.03;;
34204;SDS011;20471;49.680;20.074;2022-08-19T10:49:09;13.03;;;8.63;;
34204;SDS011;20471;49.680;20.074;2022-08-19T10:51:38;10.72;;;8.40;;
34204;SDS011;20471;49.680;20.074;2022-08-19T10:54:24;8.93;;;7.53;;
34204;SDS011;20471;49.680;20.074;2022-08-19T10:56:54;11.57;;;7.45;;
34204;SDS011;20471;49.680;20.074;2022-08-19T10:59:21;10.58;;;7.62;;
34204;SDS011;20471;49.680;20.074;2022-08-19T11:01:53;8.28;;;7.00;;
34204;SDS011;20471;49.680;20.074;2022-08-19T11:04:26;11.40;;;7.28;;
34204;SDS011;20471;49.680;20.074;2022-08-19T11:06:52;10.23;;;7.58;;
34204;SDS011;20471;49.680;20.074;2022-08-19T11:09:20;10.95;;;7.35;;
34204;SDS011;20471;49.680;20.074;2022-08-19T11:11:53;10.53;;;7.30;;
34204;SDS011;20471;49.680;20.074;2022-08-19T11:14:20;10.10;;;6.95;;
34204;SDS011;20471;49.680;20.074;2022-08-19T11:16:48;8.05;;;7.12;;
34204;SDS011;20471;49.680;20.074;2022-08-19T11:19:16;10.43;;;6.62;;
34204;SDS011;20471;49.680;20.074;2022-08-19T11:21:46;10.75;;;6.65;;
34204;SDS011;20471;49.680;20.074;2022-08-19T11:24:16;9.45;;;6.60;;
34204;SDS011;20471;49.680;20.074;2022-08-19T11:26:47;8.98;;;6.58;;
34204;SDS011;20471;49.680;20.074;2022-08-19T11:29:16;9.43;;;6.78;;
34204;SDS011;20471;49.680;20.074;2022-08-19T11:31:47;10.00;;;7.20;;
34204;SDS011;20471;49.680;20.074;2022-08-19T11:34:16;8.60;;;7.25;;
34204;SDS011;20471;49.680;20.074;2022-08-19T11:36:46;12.10;;;7.20;;
34204;SDS011;20471;49.680;20.074;2022-08-19T11:39:15;12.25;;;6.70;;
34204;SDS011;20471;49.680;20.074;2022-08-19T11:41:45;9.65;;;6.58;;
34204;SDS011;20471;49.680;20.074;2022-08-19T11:44:12;9.40;;;7.10;;
34204;SDS011;20471;49.680;20.074;2022-08-19T11:46:40;9.75;;;6.75;;
34204;SDS011;20471;49.680;20.074;2022-08-19T11:49:10;7.58;;;6.87;;
34204;SDS011;20471;49.680;20.074;2022-08-19T11:51:37;10.23;;;6.75;;
34204;SDS011;20471;49.680;20.074;2022-08-19T11:54:04;7.20;;;6.42;;
34204;SDS011;20471;49.680;20.074;2022-08-19T11:56:32;9.48;;;6.87;;
34204;SDS011;20471;49.680;20.074;2022-08-19T11:59:00;10.82;;;6.20;;
34204;SDS011;20471;49.680;20.074;2022-08-19T12:01:27;11.43;;;6.95;;
34204;SDS011;20471;49.680;20.074;2022-08-19T12:03:55;7.78;;;7.08;;
34204;SDS011;20471;49.680;20.074;2022-08-19T12:06:26;11.50;;;6.80;;
34204;SDS011;20471;49.680;20.074;2022-08-19T12:09:01;11.15;;;6.80;;
34204;SDS011;20471;49.680;20.074;2022-08-19T12:11:31;10.18;;;6.58;;
34204;SDS011;20471;49.680;20.074;2022-08-19T12:13:58;8.83;;;6.87;;
34204;SDS011;20471;49.680;20.074;2022-08-19T12:16:26;11.95;;;7.30;;
34204;SDS011;20471;49.680;20.074;2022-08-19T12:18:56;11.28;;;6.28;;
34204;SDS011;20471;49.680;20.074;2022-08-19T12:21:25;8.55;;;7.17;;
34204;SDS011;20471;49.680;20.074;2022-08-19T12:23:55;15.38;;;6.83;;
34204;SDS011;20471;49.680;20.074;2022-08-19T12:26:25;10.25;;;7.35;;
34204;SDS011;20471;49.680;20.074;2022-08-19T12:28:53;9.45;;;6.62;;
34204;SDS011;20471;49.680;20.074;2022-08-19T12:31:21;10.78;;;6.67;;
34204;SDS011;20471;49.680;20.074;2022-08-19T12:33:47;8.75;;;6.60;;
34204;SDS011;20471;49.680;20.074;2022-08-19T12:36:14;12.20;;;6.53;;
34204;SDS011;20471;49.680;20.074;2022-08-19T12:38:43;7.67;;;6.55;;
34204;SDS011;20471;49.680;20.074;2022-08-19T12:41:11;12.15;;;6.72;;
34204;SDS011;20471;49.680;20.074;2022-08-19T12:43:40;8.50;;;6.25;;
34204;SDS011;20471;49.680;20.074;2022-08-19T12:46:08;8.35;;;6.50;;
34204;SDS011;20471;49.680;20.074;2022-08-19T12:48:35;12.28;;;7.00;;
34204;SDS011;20471;49.680;20.074;2022-08-19T12:51:06;10.25;;;7.53;;
34204;SDS011;20471;49.680;20.074;2022-08-19T12:53:35;9.93;;;7.67;;
34204;SDS011;20471;49.680;20.074;2022-08-19T12:56:03;9.88;;;7.35;;
34204;SDS011;20471;49.680;20.074;2022-08-19T12:58:30;11.25;;;7.47;;
34204;SDS011;20471;49.680;20.074;2022-08-19T13:00:57;11.85;;;7.65;;
34204;SDS011;20471;49.680;20.074;2022-08-19T13:03:24;8.88;;;7.50;;
34204;SDS011;20471;49.680;20.074;2022-08-19T13:05:53;9.65;;;7.10;;
34204;SDS011;20471;49.680;20.074;2022-08-19T13:08:19;12.53;;;7.25;;
34204;SDS011;20471;49.680;20.074;2022-08-19T13:10:46;8.73;;;6.72;;
34204;SDS011;20471;49.680;20.074;2022-08-19T13:13:12;9.23;;;7.15;;
34204;SDS011;20471;49.680;20.074;2022-08-19T13:15:40;8.78;;;7.25;;
34204;SDS011;20471;49.680;20.074;2022-08-19T13:18:10;11.53;;;7.60;;
34204;SDS011;20471;49.680;20.074;2022-08-19T13:20:38;9.45;;;6.72;;
34204;SDS011;20471;49.680;20.074;2022-08-19T13:23:08;9.35;;;7.70;;
34204;SDS011;20471;49.680;20.074;2022-08-19T13:25:35;14.58;;;6.97;;
34204;SDS011;20471;49.680;20.074;2022-08-19T13:28:02;8.40;;;5.72;;
34204;SDS011;20471;49.680;20.074;2022-08-19T13:30:29;8.83;;;6.05;;
34204;SDS011;20471;49.680;20.074;2022-08-19T13:33:16;12.55;;;7.05;;
34204;SDS011;20471;49.680;20.074;2022-08-19T13:35:44;13.93;;;6.62;;
34204;SDS011;20471;49.680;20.074;2022-08-19T13:38:15;7.78;;;6.55;;
34204;SDS011;20471;49.680;20.074;2022-08-19T13:40:46;10.13;;;7.20;;
34204;SDS011;20471;49.680;20.074;2022-08-19T13:43:15;7.78;;;6.97;;
34204;SDS011;20471;49.680;20.074;2022-08-19T13:45:43;7.90;;;6.95;;
34204;SDS011;20471;49.680;20.074;2022-08-19T13:48:10;8.10;;;6.80;;
34204;SDS011;20471;49.680;20.074;2022-08-19T13:50:40;9.73;;;6.75;;
34204;SDS011;20471;49.680;20.074;2022-08-19T13:53:10;7.03;;;6.33;;
34204;SDS011;20471;49.680;20.074;2022-08-19T13:55:38;7.03;;;5.97;;
34204;SDS011;20471;49.680;20.074;2022-08-19T13:58:07;9.93;;;7.20;;
34204;SDS011;20471;49.680;20.074;2022-08-19T14:00:37;13.18;;;6.05;;
34204;SDS011;20471;49.680;20.074;2022-08-19T14:05:34;7.72;;;5.50;;
34204;SDS011;20471;49.680;20.074;2022-08-19T14:08:02;11.48;;;5.70;;
34204;SDS011;20471;49.680;20.074;2022-08-19T14:10:28;18.87;;;6.30;;
34204;SDS011;20471;49.680;20.074;2022-08-19T14:12:57;11.05;;;5.55;;
34204;SDS011;20471;49.680;20.074;2022-08-19T14:15:27;7.47;;;5.30;;
34204;SDS011;20471;49.680;20.074;2022-08-19T14:17:54;7.50;;;5.53;;
34204;SDS011;20471;49.680;20.074;2022-08-19T14:20:22;7.60;;;5.58;;
34204;SDS011;20471;49.680;20.074;2022-08-19T14:22:49;8.45;;;5.97;;
34204;SDS011;20471;49.680;20.074;2022-08-19T14:25:17;7.83;;;5.95;;
34204;SDS011;20471;49.680;20.074;2022-08-19T14:27:47;13.38;;;6.22;;
34204;SDS011;20471;49.680;20.074;2022-08-19T14:30:16;8.03;;;5.25;;
34204;SDS011;20471;49.680;20.074;2022-08-19T14:32:51;7.12;;;6.25;;
34204;SDS011;20471;49.680;20.074;2022-08-19T14:35:18;8.68;;;6.53;;
34204;SDS011;20471;49.680;20.074;2022-08-19T14:37:44;6.67;;;5.80;;
34204;SDS011;20471;49.680;20.074;2022-08-19T14:40:12;11.15;;;6.05;;
34204;SDS011;20471;49.680;20.074;2022-08-19T14:42:42;8.18;;;5.60;;
34204;SDS011;20471;49.680;20.074;2022-08-19T14:45:10;9.05;;;6.58;;
34204;SDS011;20471;49.680;20.074;2022-08-19T14:47:37;9.65;;;6.72;;
34204;SDS011;20471;49.680;20.074;2022-08-19T14:50:07;11.83;;;6.17;;
34204;SDS011;20471;49.680;20.074;2022-08-19T14:52:36;10.43;;;6.50;;
34204;SDS011;20471;49.680;20.074;2022-08-19T14:55:03;7.20;;;6.50;;
34204;SDS011;20471;49.680;20.074;2022-08-19T14:57:31;9.15;;;6.75;;
34204;SDS011;20471;49.680;20.074;2022-08-19T14:59:58;7.33;;;6.05;;
34204;SDS011;20471;49.680;20.074;2022-08-19T15:02:25;8.13;;;7.12;;
34204;SDS011;20471;49.680;20.074;2022-08-19T15:04:51;11.85;;;6.50;;
34204;SDS011;20471;49.680;20.074;2022-08-19T15:07:19;13.25;;;7.05;;
34204;SDS011;20471;49.680;20.074;2022-08-19T15:09:48;15.45;;;7.62;;
34204;SDS011;20471;49.680;20.074;2022-08-19T15:12:16;11.65;;;7.28;;
34204;SDS011;20471;49.680;20.074;2022-08-19T15:14:42;11.90;;;7.67;;
34204;SDS011;20471;49.680;20.074;2022-08-19T15:17:11;11.88;;;7.40;;
34204;SDS011;20471;49.680;20.074;2022-08-19T15:19:37;15.00;;;7.42;;